Time;durP1;ratioP1;P1;durP2;ratioP2;P2;SDS_P1;SDS_P2;PMS_P1;PMS_P2;Temp;Humidity;BMP_temperature;BMP_pressure;BME280_temperature;BME280_humidity;BME280_pressure;Samples;Min_cycle;Max_cycle;Signal;HPM_P1;HPM_P2
2022/07/19 04:00:35;;;;;;;3.70;2.60;;;14.00;99.90;;;;;;5966398;22;20043;-76
2022/07/19 04:03:01;;;;;;;5.88;2.67;;;14.00;99.90;;;;;;5017551;28;20042;-76
2022/07/19 04:05:26;;;;;;;5.30;2.83;;;14.10;99.90;;;;;;5015512;28;20117;-76
2022/07/19 04:07:52;;;;;;;5.15;2.85;;;14.00;99.90;;;;;;5017516;28;20125;-76
2022/07/19 04:10:17;;;;;;;3.55;2.50;;;14.10;99.90;;;;;;5015636;28;20134;-76
2022/07/19 04:12:43;;;;;;;6.93;2.78;;;14.10;99.90;;;;;;5017244;28;20042;-76
2022/07/19 04:17:36;;;;;;;3.53;2.55;;;14.30;99.90;;;;;;5013450;28;20113;-73
2022/07/19 04:20:03;;;;;;;4.13;2.50;;;14.40;99.90;;;;;;5016973;28;20038;-73
2022/07/19 04:22:28;;;;;;;3.83;2.83;;;14.40;99.90;;;;;;5015719;28;20030;-73
2022/07/19 04:24:54;;;;;;;4.03;2.50;;;14.40;99.90;;;;;;5016982;28;20558;-73
2022/07/19 04:27:19;;;;;;;4.38;2.80;;;14.40;99.90;;;;;;5016802;28;20484;-73
2022/07/19 04:29:45;;;;;;;5.07;2.63;;;14.40;99.90;;;;;;5016654;28;20038;-73
2022/07/19 04:32:10;;;;;;;8.05;3.22;;;14.40;99.90;;;;;;5017024;28;20035;-73
2022/07/19 04:34:36;;;;;;;4.25;2.58;;;14.40;99.90;;;;;;5016862;28;20510;-72
2022/07/19 04:37:01;;;;;;;7.97;2.90;;;14.40;99.90;;;;;;5016601;28;20046;-73
2022/07/19 04:39:27;;;;;;;8.50;2.72;;;14.40;99.90;;;;;;5017173;28;20037;-73
2022/07/19 04:41:52;;;;;;;4.97;2.70;;;14.40;99.90;;;;;;5016643;28;20502;-72
2022/07/19 04:44:19;;;;;;;6.43;2.95;;;14.50;99.90;;;;;;5016709;28;20058;-73
2022/07/19 04:46:44;;;;;;;3.83;2.80;;;14.50;99.90;;;;;;5014955;28;20038;-73
2022/07/19 04:49:10;;;;;;;6.45;2.90;;;14.50;99.90;;;;;;5016639;28;20400;-73
2022/07/19 04:51:35;;;;;;;7.05;3.17;;;14.50;99.90;;;;;;5016656;28;20507;-73
2022/07/19 04:54:01;;;;;;;9.15;3.20;;;14.60;99.90;;;;;;5016833;28;20485;-73
2022/07/19 04:56:27;;;;;;;7.15;3.55;;;14.60;99.90;;;;;;5016733;28;20070;-72
2022/07/19 04:58:52;;;;;;;7.90;3.22;;;14.70;99.90;;;;;;5016615;28;20038;-72
2022/07/19 05:01:18;;;;;;;3.78;3.00;;;14.70;99.90;;;;;;5016274;28;20046;-72
2022/07/19 05:03:43;;;;;;;7.38;3.30;;;14.80;99.90;;;;;;5016485;28;20034;-72
2022/07/19 05:06:09;;;;;;;5.20;3.03;;;14.80;99.90;;;;;;5014785;28;20038;-72
2022/07/19 05:08:34;;;;;;;7.03;3.47;;;14.80;99.90;;;;;;5016150;28;20030;-72
2022/07/19 05:11:00;;;;;;;9.15;3.50;;;14.90;99.90;;;;;;5014857;28;20037;-72
2022/07/19 05:13:25;;;;;;;4.20;3.17;;;15.00;99.90;;;;;;5016575;28;20031;-72
2022/07/19 05:15:51;;;;;;;4.97;3.55;;;15.10;99.90;;;;;;5014007;28;20069;-72
2022/07/19 05:18:16;;;;;;;7.90;4.30;;;15.10;99.90;;;;;;5015970;28;20063;-72
2022/07/19 05:20:42;;;;;;;11.57;6.00;;;15.30;99.90;;;;;;5015597;28;20088;-72
2022/07/19 05:23:08;;;;;;;9.50;5.43;;;15.50;99.90;;;;;;5016112;28;20038;-72
2022/07/19 05:25:33;;;;;;;9.02;4.85;;;15.60;99.90;;;;;;5015954;28;20034;-72
2022/07/19 05:27:59;;;;;;;7.25;4.25;;;15.80;99.90;;;;;;5015735;28;20105;-72
2022/07/19 05:30:24;;;;;;;6.95;4.47;;;15.90;99.90;;;;;;5014570;28;20030;-72
2022/07/19 05:32:50;;;;;;;6.93;4.20;;;16.10;99.60;;;;;;5016023;28;20077;-72
2022/07/19 05:35:15;;;;;;;5.88;3.58;;;16.20;99.30;;;;;;5015537;28;20038;-72
2022/07/19 05:37:41;;;;;;;5.70;3.58;;;16.30;99.10;;;;;;5015968;28;20034;-72
2022/07/19 05:40:07;;;;;;;8.20;3.25;;;16.40;99.00;;;;;;5015704;28;20049;-72
2022/07/19 05:42:32;;;;;;;5.57;2.95;;;16.50;98.10;;;;;;5016144;28;20069;-72
2022/07/19 05:44:58;;;;;;;9.48;2.83;;;16.60;97.80;;;;;;5016085;28;20085;-72
2022/07/19 05:47:24;;;;;;;5.13;3.08;;;16.70;97.40;;;;;;5015933;28;20058;-72
2022/07/19 05:49:49;;;;;;;5.38;2.92;;;16.90;97.20;;;;;;5015590;28;20492;-72
2022/07/19 05:52:15;;;;;;;4.68;2.60;;;17.00;96.90;;;;;;5015720;28;20041;-72
2022/07/19 05:54:40;;;;;;;4.03;2.58;;;17.00;96.50;;;;;;5015374;28;20040;-72
2022/07/19 05:57:06;;;;;;;4.13;2.63;;;17.20;96.30;;;;;;5013871;28;20117;-73
2022/07/19 05:59:35;;;;;;;4.82;2.55;;;17.30;96.00;;;;;;5015465;28;20038;-72
2022/07/19 06:02:01;;;;;;;4.32;2.75;;;17.40;95.90;;;;;;5015357;28;20038;-72
2022/07/19 06:04:27;;;;;;;4.82;2.92;;;17.50;95.80;;;;;;5015183;28;20081;-72
2022/07/19 06:06:52;;;;;;;4.95;3.13;;;17.60;95.90;;;;;;5015272;28;20046;-72
2022/07/19 06:09:18;;;;;;;5.30;3.22;;;17.70;96.30;;;;;;5015345;28;20128;-72
2022/07/19 06:11:43;;;;;;;5.63;3.13;;;17.80;95.60;;;;;;5015847;28;20038;-72
2022/07/19 06:14:09;;;;;;;6.78;2.75;;;17.90;95.30;;;;;;5014891;28;20038;-72
2022/07/19 06:16:38;;;;;;;6.90;3.10;;;18.10;95.60;;;;;;5013216;28;20034;-72
2022/07/19 06:19:04;;;;;;;4.38;2.80;;;18.10;94.70;;;;;;5015273;28;20038;-72
2022/07/19 06:21:29;;;;;;;5.95;2.70;;;18.30;93.80;;;;;;5015202;28;20053;-71
2022/07/19 06:23:56;;;;;;;3.55;2.40;;;18.50;93.70;;;;;;5015080;28;20472;-73
2022/07/19 06:26:22;;;;;;;5.07;2.60;;;18.60;93.80;;;;;;5014786;28;20492;-72
2022/07/19 06:28:47;;;;;;;4.78;2.60;;;18.70;93.40;;;;;;5013303;28;20489;-72
2022/07/19 06:31:14;;;;;;;4.32;2.90;;;18.90;93.50;;;;;;5015050;28;20044;-72
2022/07/19 06:33:42;;;;;;;4.57;2.53;;;19.00;93.10;;;;;;5015249;28;20039;-72
2022/07/19 06:36:08;;;;;;;5.28;2.70;;;19.10;92.80;;;;;;5014619;28;20038;-72
2022/07/19 06:38:37;;;;;;;4.82;2.80;;;19.20;92.00;;;;;;5014987;28;20487;-72
2022/07/19 06:41:04;;;;;;;5.20;2.45;;;19.30;91.30;;;;;;5014213;28;20538;-72
2022/07/19 06:43:29;;;;;;;3.63;2.70;;;19.50;91.50;;;;;;5013358;28;20468;-72
2022/07/19 06:45:57;;;;;;;6.07;2.78;;;19.60;91.20;;;;;;5012733;28;20041;-72
2022/07/19 06:48:23;;;;;;;6.40;2.70;;;19.80;90.50;;;;;;5014743;28;20037;-72
2022/07/19 06:50:49;;;;;;;5.07;2.78;;;20.00;90.60;;;;;;5014807;28;20388;-72
2022/07/19 06:53:15;;;;;;;6.22;2.70;;;20.20;89.80;;;;;;5014479;28;20130;-72
2022/07/19 06:55:41;;;;;;;4.35;2.80;;;20.40;89.90;;;;;;5013871;28;20026;-72
2022/07/19 06:58:10;;;;;;;5.68;2.63;;;20.50;89.90;;;;;;5013281;28;20066;-72
2022/07/19 07:00:36;;;;;;;5.20;2.22;;;20.70;89.00;;;;;;5014525;28;20042;-72
2022/07/19 07:03:04;;;;;;;6.18;3.08;;;20.80;88.90;;;;;;5014490;28;20088;-72
2022/07/19 07:05:30;;;;;;;5.60;2.60;;;21.00;87.70;;;;;;5014079;28;20129;-72
2022/07/19 07:07:55;;;;;;;4.13;2.67;;;21.20;87.30;;;;;;5014826;28;20461;-72
2022/07/19 07:10:24;;;;;;;6.63;2.78;;;21.50;87.10;;;;;;5014571;28;20432;-72
2022/07/19 07:12:49;;;;;;;7.40;2.80;;;21.70;86.00;;;;;;5012873;28;20480;-72
2022/07/19 07:15:15;;;;;;;5.78;2.72;;;21.90;84.80;;;;;;5013859;28;20047;-73
2022/07/19 07:17:41;;;;;;;5.05;2.80;;;22.20;84.70;;;;;;5014542;28;20031;-73
2022/07/19 07:20:08;;;;;;;3.88;2.47;;;22.50;83.80;;;;;;5012835;28;20050;-73
2022/07/19 07:22:35;;;;;;;6.50;3.00;;;22.60;83.20;;;;;;5014681;28;20053;-73
2022/07/19 07:25:00;;;;;;;6.65;3.20;;;22.80;81.90;;;;;;5013989;28;20755;-73
2022/07/19 07:27:29;;;;;;;4.82;2.60;;;23.10;80.60;;;;;;5014109;28;20037;-72
2022/07/19 07:29:55;;;;;;;5.10;2.90;;;23.40;80.20;;;;;;5012975;28;20412;-73
2022/07/19 07:32:20;;;;;;;5.63;2.80;;;23.50;79.90;;;;;;5014463;28;20038;-73
2022/07/19 07:34:46;;;;;;;5.43;2.78;;;23.70;79.90;;;;;;5012474;28;20045;-73
2022/07/19 07:37:12;;;;;;;3.60;2.35;;;24.00;78.30;;;;;;5012394;28;20077;-73
2022/07/19 07:39:38;;;;;;;5.60;2.90;;;24.30;77.70;;;;;;5012392;28;20038;-73
2022/07/19 07:42:10;;;;;;;5.80;2.78;;;24.50;77.50;;;;;;5012434;28;20046;-73
2022/07/19 07:44:35;;;;;;;7.50;2.60;;;24.90;75.40;;;;;;5012527;28;20455;-73
2022/07/19 07:47:01;;;;;;;10.18;3.30;;;25.10;76.50;;;;;;5013674;28;20038;-73
2022/07/19 07:49:27;;;;;;;6.65;2.50;;;25.40;74.90;;;;;;5014245;28;20073;-73
2022/07/19 07:51:53;;;;;;;9.00;2.90;;;25.60;74.20;;;;;;5012432;28;20448;-73
2022/07/19 07:54:18;;;;;;;9.30;2.97;;;26.10;75.00;;;;;;5015976;28;20038;-73
2022/07/19 07:56:47;;;;;;;7.13;2.70;;;26.30;73.00;;;;;;5016954;28;20113;-73
2022/07/19 07:59:12;;;;;;;11.82;3.00;;;26.50;71.10;;;;;;5015756;28;20037;-73
2022/07/19 08:01:39;;;;;;;3.83;2.33;;;26.70;70.70;;;;;;5017539;28;20121;-73
2022/07/19 08:04:04;;;;;;;5.97;2.78;;;26.80;70.00;;;;;;5015490;28;20031;-73
2022/07/19 08:06:30;;;;;;;7.40;2.50;;;27.00;69.10;;;;;;5016737;28;20030;-73
2022/07/19 08:08:56;;;;;;;6.13;2.78;;;27.20;68.20;;;;;;5017264;28;20456;-73
2022/07/19 08:11:21;;;;;;;5.15;2.53;;;27.40;68.10;;;;;;5017036;28;20038;-73
2022/07/19 08:13:47;;;;;;;9.32;2.67;;;27.60;66.40;;;;;;5017352;28;20038;-73
2022/07/19 08:16:13;;;;;;;6.05;2.50;;;27.90;66.40;;;;;;5017591;28;20039;-74
2022/07/19 08:18:38;;;;;;;5.03;2.80;;;28.00;65.10;;;;;;5017888;28;20116;-73
2022/07/19 08:21:04;;;;;;;6.53;2.40;;;28.30;65.50;;;;;;5017167;28;20042;-73
2022/07/19 08:23:30;;;;;;;5.63;2.50;;;28.60;65.30;;;;;;5016964;28;20041;-73
2022/07/19 08:25:55;;;;;;;5.80;2.58;;;28.80;64.30;;;;;;5016757;28;20038;-73
2022/07/19 08:28:21;;;;;;;6.63;2.40;;;29.10;64.00;;;;;;5017236;28;20077;-73
2022/07/19 08:30:46;;;;;;;10.45;2.75;;;29.30;61.30;;;;;;5015466;28;20097;-73
2022/07/19 08:33:12;;;;;;;5.38;2.63;;;29.50;60.00;;;;;;5015575;28;20495;-74
2022/07/19 08:35:38;;;;;;;5.72;2.60;;;29.70;58.70;;;;;;5016757;28;20476;-74
2022/07/19 08:38:03;;;;;;;4.82;2.80;;;29.90;59.10;;;;;;5015823;28;20026;-74
2022/07/19 08:40:34;;;;;;;11.93;3.22;;;30.10;58.40;;;;;;5016908;28;20051;-74
2022/07/19 08:43:02;;;;;;;5.97;2.50;;;30.30;59.70;;;;;;5017046;28;20484;-74
2022/07/19 08:45:30;;;;;;;7.78;2.67;;;30.30;59.00;;;;;;5016182;28;20125;-74
2022/07/19 08:47:57;;;;;;;6.65;2.53;;;30.30;58.30;;;;;;5016744;28;20097;-74
2022/07/19 08:50:24;;;;;;;3.78;2.72;;;30.60;57.90;;;;;;5016605;28;20424;-74
2022/07/19 08:52:51;;;;;;;4.07;2.50;;;30.80;57.70;;;;;;5016696;28;20093;-73
2022/07/19 08:55:17;;;;;;;5.07;2.53;;;31.00;57.40;;;;;;5016281;28;20105;-74
2022/07/19 08:57:58;;;;;;;9.07;2.78;;;31.30;57.70;;;;;;5016500;28;20030;-74
2022/07/19 09:00:25;;;;;;;13.65;2.83;;;31.40;55.90;;;;;;5016845;28;20118;-74
2022/07/19 09:02:57;;;;;;;5.80;2.80;;;31.40;56.10;;;;;;5016635;28;20026;-74
2022/07/19 09:05:23;;;;;;;4.78;2.22;;;31.60;54.90;;;;;;5016313;28;20201;-74
2022/07/19 09:08:05;;;;;;;6.15;2.65;;;31.80;54.90;;;;;;5017061;28;20874;-74
2022/07/19 09:10:33;;;;;;;4.15;2.65;;;32.00;53.80;;;;;;5017135;28;20038;-74
2022/07/19 09:13:05;;;;;;;4.18;2.40;;;32.00;54.50;;;;;;5016733;28;20088;-74
2022/07/19 09:15:38;;;;;;;3.20;2.22;;;32.20;51.90;;;;;;5015391;28;20503;-74
2022/07/19 09:18:12;;;;;;;3.65;2.42;;;32.40;51.30;;;;;;5015063;28;20027;-74
2022/07/19 09:20:39;;;;;;;2.47;2.28;;;32.60;50.40;;;;;;5015236;28;20140;-74
2022/07/19 09:23:06;;;;;;;4.05;2.40;;;32.80;49.90;;;;;;5016840;28;20109;-74
2022/07/19 09:25:39;;;;;;;2.58;2.00;;;32.70;51.60;;;;;;5016372;28;20035;-75
2022/07/19 09:28:06;;;;;;;3.63;2.13;;;32.90;49.60;;;;;;5016728;28;20031;-74
2022/07/19 09:30:43;;;;;;;4.57;2.30;;;33.30;48.00;;;;;;5016729;28;20038;-75
2022/07/19 09:33:14;;;;;;;3.55;2.00;;;33.60;45.80;;;;;;5016399;28;20041;-74
2022/07/19 09:35:44;;;;;;;4.97;2.30;;;33.70;45.20;;;;;;5016025;28;20040;-74
2022/07/19 09:38:25;;;;;;;6.88;1.77;;;33.70;46.70;;;;;;5014936;28;20026;-74
2022/07/19 09:41:08;;;;;;;4.43;1.80;;;34.00;43.80;;;;;;5016418;28;20042;-74
2022/07/19 09:43:54;;;;;;;3.88;1.90;;;34.40;43.40;;;;;;5016340;28;20416;-74
2022/07/19 09:46:40;;;;;;;3.65;1.80;;;34.50;41.70;;;;;;5015731;28;20056;-74
2022/07/19 09:49:13;;;;;;;4.57;2.08;;;34.60;42.10;;;;;;5014318;28;20023;-75
2022/07/19 09:51:41;;;;;;;3.40;1.90;;;34.90;40.90;;;;;;5016279;28;20034;-74
2022/07/19 09:54:09;;;;;;;3.00;2.08;;;35.00;41.60;;;;;;5015431;28;20030;-75
2022/07/19 09:56:37;;;;;;;3.28;2.00;;;35.20;40.80;;;;;;5015745;28;20431;-75
2022/07/19 09:59:03;;;;;;;8.30;2.00;;;35.10;41.30;;;;;;5016003;28;20091;-74
2022/07/19 10:01:30;;;;;;;2.60;2.00;;;35.10;40.50;;;;;;5016192;28;20084;-74
2022/07/19 10:04:27;;;;;;;4.60;1.75;;;34.90;40.80;;;;;;5015819;28;20038;-75
2022/07/19 10:06:53;;;;;;;7.15;2.10;;;35.20;42.50;;;;;;5002671;28;20096;-74
2022/07/19 10:09:21;;;;;;;8.15;2.10;;;35.30;40.80;;;;;;5015965;28;20038;-74
2022/07/19 10:11:47;;;;;;;4.35;2.35;;;35.60;40.40;;;;;;5016221;28;20042;-74
2022/07/19 10:14:13;;;;;;;5.85;2.28;;;35.50;40.10;;;;;;5014241;28;20090;-75
2022/07/19 10:16:48;;;;;;;3.55;2.08;;;35.60;40.80;;;;;;5044711;23;20062;-78
2022/07/19 10:19:30;;;;;;;3.75;2.00;;;35.90;40.30;;;;;;5034306;28;20069;-78
2022/07/19 10:21:57;;;;;;;2.80;2.08;;;36.10;40.90;;;;;;5034038;28;20038;-78
2022/07/19 10:24:55;;;;;;;3.35;2.08;;;36.10;41.40;;;;;;5033193;28;20030;-78
2022/07/19 10:27:23;;;;;;;3.63;2.00;;;35.90;40.40;;;;;;5033404;28;20033;-78
2022/07/19 10:29:50;;;;;;;2.97;2.13;;;36.00;42.80;;;;;;5033510;28;20025;-78
2022/07/19 10:32:15;;;;;;;2.42;2.00;;;36.20;40.00;;;;;;5034720;28;20046;-78
2022/07/19 10:34:42;;;;;;;3.15;2.00;;;36.20;42.00;;;;;;5034464;28;20026;-78
2022/07/19 10:37:08;;;;;;;5.07;2.05;;;36.50;41.80;;;;;;5034424;28;20180;-78
2022/07/19 10:39:39;;;;;;;2.72;2.05;;;36.50;39.50;;;;;;5034652;28;20034;-78
2022/07/19 10:42:19;;;;;;;5.72;2.25;;;36.60;40.60;;;;;;5034535;28;20042;-78
2022/07/19 10:44:59;;;;;;;3.40;2.00;;;36.70;39.50;;;;;;5032895;28;20037;-78
2022/07/19 10:47:37;;;;;;;4.05;2.03;;;36.50;40.00;;;;;;5034402;28;20109;-78
2022/07/19 10:50:09;;;;;;;2.72;2.10;;;36.70;39.30;;;;;;5034775;28;20046;-78
2022/07/19 10:52:39;;;;;;;4.35;2.17;;;36.60;39.70;;;;;;5033229;28;20065;-77
2022/07/19 10:55:17;;;;;;;4.63;2.08;;;36.60;40.40;;;;;;5034035;28;20038;-77
2022/07/19 10:57:49;;;;;;;3.65;2.03;;;36.90;39.70;;;;;;5033835;28;20034;-78
2022/07/19 11:00:26;;;;;;;3.92;2.08;;;37.20;39.20;;;;;;5033239;28;20030;-77
2022/07/19 11:03:12;;;;;;;3.22;2.03;;;37.20;38.30;;;;;;5033066;28;20113;-78
2022/07/19 11:05:47;;;;;;;4.85;2.60;;;37.30;36.80;;;;;;5034015;28;20038;-81
2022/07/19 11:08:13;;;;;;;4.68;2.40;;;37.30;37.70;;;;;;5042329;28;20034;-79
2022/07/19 11:10:38;;;;;;;3.67;2.28;;;37.40;37.50;;;;;;5037477;28;20030;-78
2022/07/19 11:13:05;;;;;;;5.22;2.40;;;37.60;38.60;;;;;;5034588;28;20089;-78
2022/07/19 11:15:30;;;;;;;4.70;2.22;;;37.90;38.50;;;;;;5035975;28;20030;-80
2022/07/19 11:17:58;;;;;;;4.78;2.25;;;37.80;37.50;;;;;;5032081;28;20111;-78
2022/07/19 11:20:32;;;;;;;2.97;2.28;;;37.80;35.60;;;;;;5034537;28;20034;-78
2022/07/19 11:22:59;;;;;;;6.03;2.85;;;37.70;35.30;;;;;;5032801;28;20527;-78
2022/07/19 11:25:43;;;;;;;4.80;2.45;;;37.70;34.90;;;;;;5034168;28;20507;-79
2022/07/19 11:28:23;;;;;;;4.93;2.70;;;37.90;36.30;;;;;;5036522;28;20077;-78
2022/07/19 11:30:50;;;;;;;6.32;2.65;;;37.80;36.70;;;;;;5037587;28;20076;-79
2022/07/19 11:33:18;;;;;;;6.03;2.60;;;37.90;35.60;;;;;;5038116;28;20022;-79
2022/07/19 11:35:57;;;;;;;6.03;2.63;;;38.20;35.60;;;;;;5036395;28;20042;-79
2022/07/19 11:38:23;;;;;;;5.13;2.60;;;38.40;35.70;;;;;;5036831;28;20117;-77
2022/07/19 11:40:49;;;;;;;4.18;2.58;;;38.50;37.30;;;;;;5037925;28;20411;-78
2022/07/19 11:43:14;;;;;;;4.03;2.50;;;38.40;37.00;;;;;;5035916;28;20034;-78
2022/07/19 11:45:46;;;;;;;3.85;2.72;;;38.70;36.60;;;;;;5037595;28;20388;-77
2022/07/19 11:48:12;;;;;;;4.22;2.72;;;38.60;35.90;;;;;;5037292;28;20030;-81
2022/07/19 11:50:40;;;;;;;4.57;3.30;;;38.60;35.40;;;;;;5038021;28;20061;-79
2022/07/19 11:53:06;;;;;;;4.85;3.08;;;38.60;35.10;;;;;;5037191;28;20185;-78
2022/07/19 11:55:37;;;;;;;7.80;2.92;;;38.60;35.00;;;;;;5036384;28;20174;-80
2022/07/19 11:58:10;;;;;;;4.03;2.90;;;38.80;36.10;;;;;;5038069;28;20030;-80
2022/07/19 12:00:36;;;;;;;7.63;3.00;;;38.60;34.90;;;;;;5036925;28;20076;-75
2022/07/19 12:03:06;;;;;;;5.25;3.13;;;38.90;34.80;;;;;;5037815;28;20165;-77
2022/07/19 12:05:34;;;;;;;2.72;2.35;;;38.70;35.30;;;;;;5035745;28;20033;-78
2022/07/19 12:08:02;;;;;;;5.95;2.90;;;38.70;35.20;;;;;;5036227;28;20080;-77
2022/07/19 12:10:40;;;;;;;4.78;2.80;;;39.30;35.60;;;;;;5037096;28;20029;-77
2022/07/19 12:13:09;;;;;;;5.50;2.80;;;39.30;34.70;;;;;;5037396;28;20029;-77
2022/07/19 12:15:50;;;;;;;5.30;2.65;;;39.50;34.30;;;;;;5036319;28;20057;-77
2022/07/19 12:18:18;;;;;;;6.22;2.75;;;39.90;35.00;;;;;;5037003;28;20029;-77
2022/07/19 12:20:46;;;;;;;3.88;2.90;;;39.70;33.80;;;;;;5036923;28;20124;-77
2022/07/19 12:23:18;;;;;;;5.97;2.58;;;39.60;35.80;;;;;;5036940;28;20057;-77
2022/07/19 12:25:44;;;;;;;4.63;2.80;;;39.70;35.00;;;;;;5034965;28;20499;-77
2022/07/19 12:28:10;;;;;;;4.75;3.00;;;39.70;34.80;;;;;;5036889;28;20030;-78
2022/07/19 12:30:36;;;;;;;4.60;2.78;;;39.50;36.00;;;;;;5037076;28;20040;-78
2022/07/19 12:33:12;;;;;;;6.18;2.70;;;39.70;35.30;;;;;;5036779;28;20030;-78
2022/07/19 12:35:46;;;;;;;4.70;2.80;;;39.60;34.30;;;;;;5036383;28;20026;-77
2022/07/19 12:38:13;;;;;;;3.92;2.70;;;39.70;33.30;;;;;;5036903;28;20041;-78
2022/07/19 12:40:43;;;;;;;3.17;2.70;;;39.90;33.90;;;;;;5036140;28;20038;-77
2022/07/19 12:43:12;;;;;;;5.38;3.08;;;40.00;33.60;;;;;;5036925;28;20473;-78
2022/07/19 12:45:46;;;;;;;4.97;2.70;;;40.10;34.80;;;;;;5034485;28;20488;-78
2022/07/19 12:48:13;;;;;;;6.70;2.70;;;40.10;32.90;;;;;;5036577;28;20034;-77
2022/07/19 12:50:42;;;;;;;4.13;2.90;;;40.00;34.70;;;;;;5036326;28;20108;-78
2022/07/19 12:53:10;;;;;;;3.58;2.78;;;40.00;33.20;;;;;;5036410;28;20084;-78
2022/07/19 12:55:37;;;;;;;6.20;2.50;;;40.30;33.50;;;;;;5035654;28;20057;-78
2022/07/19 12:58:05;;;;;;;4.38;2.47;;;40.30;33.00;;;;;;5035122;28;20097;-78
2022/07/19 13:00:32;;;;;;;3.63;2.70;;;40.40;33.90;;;;;;5035962;28;20041;-78
2022/07/19 13:02:59;;;;;;;4.30;2.80;;;40.20;32.70;;;;;;5036386;28;20030;-78
2022/07/19 13:05:28;;;;;;;5.43;2.72;;;40.00;34.90;;;;;;5035975;28;20061;-78
2022/07/19 13:07:55;;;;;;;4.22;2.90;;;40.10;33.10;;;;;;5036067;28;20029;-78
2022/07/19 13:10:21;;;;;;;7.72;3.20;;;40.40;32.20;;;;;;5036126;28;20036;-78
2022/07/19 13:12:46;;;;;;;4.53;2.60;;;40.30;36.30;;;;;;5036097;28;20040;-78
2022/07/19 13:15:14;;;;;;;5.53;2.80;;;40.00;32.50;;;;;;5035909;28;20041;-77
2022/07/19 13:17:39;;;;;;;5.93;2.70;;;40.10;33.20;;;;;;5035897;28;20034;-78
2022/07/19 13:20:09;;;;;;;4.68;3.10;;;40.50;32.20;;;;;;5035919;28;20042;-78
2022/07/19 13:22:42;;;;;;;3.95;2.55;;;40.50;32.90;;;;;;5035705;28;20503;-78
2022/07/19 13:25:12;;;;;;;4.57;2.67;;;40.90;32.70;;;;;;5034342;28;20034;-78
2022/07/19 13:27:37;;;;;;;6.45;2.80;;;41.60;32.30;;;;;;5035609;28;20037;-77
2022/07/19 13:30:04;;;;;;;4.28;2.75;;;41.40;30.70;;;;;;5034535;28;20040;-78
2022/07/19 13:32:30;;;;;;;4.82;2.80;;;41.40;30.40;;;;;;5034138;28;20060;-77
2022/07/19 13:34:55;;;;;;;4.97;2.83;;;41.90;31.30;;;;;;5035572;28;20495;-77
2022/07/19 13:37:21;;;;;;;5.38;2.60;;;42.20;33.30;;;;;;5036126;28;20049;-78
2022/07/19 13:39:47;;;;;;;3.95;3.08;;;42.40;31.40;;;;;;5036162;28;20519;-80
2022/07/19 13:42:13;;;;;;;6.97;3.05;;;42.80;30.20;;;;;;5034423;28;20046;-79
2022/07/19 13:44:38;;;;;;;4.28;2.83;;;43.20;29.30;;;;;;5035864;28;20034;-79
2022/07/19 13:47:04;;;;;;;5.60;3.10;;;44.00;29.60;;;;;;5034549;28;20396;-80
2022/07/19 13:49:29;;;;;;;8.73;2.83;;;43.80;28.50;;;;;;5036150;28;20042;-80
2022/07/19 13:51:55;;;;;;;6.35;2.80;;;44.30;30.70;;;;;;5035533;28;20041;-79
2022/07/19 13:54:20;;;;;;;4.75;2.78;;;44.70;29.00;;;;;;5035459;28;20034;-78
2022/07/19 13:56:46;;;;;;;5.30;3.30;;;45.50;28.30;;;;;;5035881;28;20034;-79
2022/07/19 13:59:11;;;;;;;3.63;3.08;;;44.70;28.10;;;;;;5034940;28;20133;-79
2022/07/19 14:01:37;;;;;;;4.47;3.15;;;44.40;28.40;;;;;;5034298;28;20042;-79
2022/07/19 14:04:03;;;;;;;5.20;2.90;;;44.00;28.80;;;;;;5034404;28;20038;-79
2022/07/19 14:06:28;;;;;;;5.50;2.85;;;44.30;29.30;;;;;;5035883;28;20038;-79
2022/07/19 14:08:54;;;;;;;6.15;2.75;;;44.60;28.60;;;;;;5036040;28;20037;-80
2022/07/19 14:11:20;;;;;;;6.57;3.20;;;45.60;28.30;;;;;;5034470;28;20041;-79
2022/07/19 14:13:46;;;;;;;5.78;3.10;;;45.90;28.50;;;;;;5035874;28;20061;-79
2022/07/19 14:16:12;;;;;;;5.25;3.15;;;46.20;28.60;;;;;;5035736;28;20120;-79
2022/07/19 14:18:37;;;;;;;3.78;3.10;;;47.00;27.30;;;;;;5034574;28;20084;-79
2022/07/19 14:21:03;;;;;;;3.42;3.13;;;47.30;26.70;;;;;;5036114;28;20468;-79
2022/07/19 14:23:29;;;;;;;4.00;3.30;;;47.60;27.90;;;;;;5036983;28;20030;-80
2022/07/19 14:25:56;;;;;;;4.68;3.42;;;47.70;27.00;;;;;;5034638;28;20074;-80
2022/07/19 14:28:22;;;;;;;6.00;3.33;;;47.40;28.20;;;;;;5036974;28;20821;-80
2022/07/19 14:30:47;;;;;;;6.78;3.38;;;47.80;27.00;;;;;;5035921;28;20034;-80
2022/07/19 14:33:13;;;;;;;6.55;3.50;;;47.60;26.90;;;;;;5036434;28;20045;-79
2022/07/19 14:35:39;;;;;;;4.18;3.30;;;47.60;26.90;;;;;;5034275;28;20038;-80
2022/07/19 14:38:04;;;;;;;7.63;3.55;;;46.70;27.50;;;;;;5034727;28;20061;-80
2022/07/19 14:40:30;;;;;;;5.07;3.40;;;47.30;27.20;;;;;;5036694;28;20093;-81
2022/07/19 14:42:56;;;;;;;4.07;3.35;;;47.50;27.00;;;;;;5037409;28;20025;-80
2022/07/19 14:45:22;;;;;;;6.45;3.67;;;47.60;26.70;;;;;;5036983;28;20042;-80
2022/07/19 14:47:48;;;;;;;8.35;3.90;;;47.90;26.00;;;;;;5037056;28;20034;-81
2022/07/19 14:50:14;;;;;;;7.60;4.10;;;48.40;26.30;;;;;;5036248;28;20077;-81
2022/07/19 14:52:40;;;;;;;4.07;3.67;;;48.70;25.80;;;;;;5034978;28;20068;-81
2022/07/19 14:55:08;;;;;;;8.93;6.35;;;48.20;25.90;;;;;;5036414;28;20474;-81
2022/07/19 14:57:33;;;;;;;7.85;4.75;;;48.30;27.00;;;;;;5034736;28;20125;-79
2022/07/19 14:59:59;;;;;;;7.20;4.68;;;49.40;27.20;;;;;;5037367;28;20133;-81
2022/07/19 15:02:24;;;;;;;5.22;4.70;;;49.90;26.80;;;;;;5038655;28;20058;-82
2022/07/19 15:04:50;;;;;;;8.82;5.78;;;49.80;25.00;;;;;;5037550;28;20038;-81
2022/07/19 15:07:17;;;;;;;8.95;6.65;;;50.90;25.90;;;;;;5038137;28;20460;-81
2022/07/19 15:09:42;;;;;;;5.78;5.22;;;50.70;24.50;;;;;;5036372;28;20068;-81
2022/07/19 15:12:09;;;;;;;6.22;5.63;;;50.70;25.60;;;;;;5036992;28;20651;-81
2022/07/19 15:14:34;;;;;;;4.70;4.38;;;50.30;25.10;;;;;;5036309;28;20030;-81
2022/07/19 15:17:02;;;;;;;4.90;4.30;;;49.10;25.20;;;;;;5037768;28;20038;-81
2022/07/19 15:19:28;;;;;;;5.28;4.32;;;49.10;25.80;;;;;;5036485;28;20030;-81
2022/07/19 15:21:55;;;;;;;6.38;3.97;;;49.00;26.20;;;;;;5038755;28;20038;-81
2022/07/19 15:24:20;;;;;;;5.45;4.00;;;48.90;25.80;;;;;;5036998;28;20185;-81
2022/07/19 15:26:47;;;;;;;8.20;4.03;;;48.90;27.20;;;;;;5039468;28;20094;-81
2022/07/19 15:29:16;;;;;;;5.28;3.70;;;49.80;25.50;;;;;;5038601;28;20349;-82
2022/07/19 15:31:42;;;;;;;6.60;4.32;;;49.40;25.10;;;;;;5038019;28;20033;-82
2022/07/19 15:34:08;;;;;;;7.60;4.30;;;49.70;25.10;;;;;;5037220;28;20069;-82
2022/07/19 15:36:33;;;;;;;7.07;3.95;;;49.70;24.90;;;;;;5039832;28;20464;-82
2022/07/19 15:38:59;;;;;;;6.15;4.45;;;49.50;25.50;;;;;;5037840;28;20180;-82
2022/07/19 15:41:25;;;;;;;6.80;4.05;;;50.30;25.40;;;;;;5037530;28;20476;-82
2022/07/19 15:43:50;;;;;;;6.18;4.38;;;50.60;25.20;;;;;;5038939;28;20045;-82
2022/07/19 15:46:16;;;;;;;5.82;4.20;;;51.60;25.70;;;;;;5037079;28;20543;-81
2022/07/19 15:48:42;;;;;;;5.32;3.78;;;51.00;24.90;;;;;;5037321;28;20042;-82
2022/07/19 15:51:09;;;;;;;6.22;3.85;;;50.10;25.00;;;;;;5038859;28;20038;-81
2022/07/19 15:53:35;;;;;;;5.07;3.63;;;49.80;25.70;;;;;;5039276;28;20033;-82
2022/07/19 15:56:01;;;;;;;4.50;3.70;;;49.00;25.70;;;;;;5039021;28;20124;-80
2022/07/19 15:58:27;;;;;;;4.68;3.83;;;48.70;26.50;;;;;;5041120;28;20105;-80
2022/07/19 16:00:53;;;;;;;4.60;3.17;;;48.90;25.50;;;;;;5040955;28;20049;-81
2022/07/19 16:03:19;;;;;;;7.90;3.25;;;48.80;26.40;;;;;;5039084;28;20022;-81
2022/07/19 16:05:45;;;;;;;6.57;3.60;;;48.50;27.30;;;;;;5038227;28;20030;-81
2022/07/19 16:08:11;;;;;;;6.38;3.15;;;49.20;27.10;;;;;;5035895;28;20122;-77
2022/07/19 16:10:38;;;;;;;4.70;3.50;;;49.60;26.20;;;;;;5036359;28;20527;-80
2022/07/19 16:13:03;;;;;;;7.68;3.78;;;49.80;26.80;;;;;;5035390;28;20566;-82
2022/07/19 16:15:31;;;;;;;8.40;3.58;;;49.30;25.50;;;;;;5038435;28;20081;-79
2022/07/19 16:17:59;;;;;;;4.80;3.25;;;49.30;25.80;;;;;;5083894;22;20057;-73
2022/07/19 16:20:25;;;;;;;3.80;3.30;;;50.00;24.80;;;;;;5076815;28;20744;-73
2022/07/19 16:22:51;;;;;;;4.18;3.25;;;49.40;25.80;;;;;;5076910;28;20055;-73
2022/07/19 16:25:17;;;;;;;7.25;3.15;;;48.70;25.60;;;;;;5075312;28;20044;-73
2022/07/19 16:27:46;;;;;;;4.30;3.30;;;49.70;26.10;;;;;;5060073;28;20415;-73
2022/07/19 16:30:13;;;;;;;4.65;3.45;;;50.20;25.40;;;;;;5055462;28;20033;-73
2022/07/19 16:32:42;;;;;;;7.05;3.38;;;49.90;25.80;;;;;;5055020;28;20067;-75
2022/07/19 16:35:08;;;;;;;4.32;3.22;;;49.20;25.20;;;;;;5056550;28;20153;-73
2022/07/19 16:37:35;;;;;;;4.63;3.33;;;48.10;25.80;;;;;;5047837;28;20046;-73
2022/07/19 16:40:05;;;;;;;4.18;2.80;;;46.50;26.30;;;;;;5039117;28;20033;-74
2022/07/19 16:42:31;;;;;;;4.68;3.08;;;44.10;28.20;;;;;;5036722;28;20041;-74
2022/07/19 16:44:57;;;;;;;5.30;2.80;;;42.30;28.30;;;;;;5036586;28;20030;-74
2022/07/19 16:47:22;;;;;;;3.20;2.78;;;40.90;29.70;;;;;;5037189;28;20040;-74
2022/07/19 16:49:48;;;;;;;5.40;2.78;;;39.80;31.30;;;;;;5036930;28;20030;-74